Amatorska stacja pogodowa orzepowice24.pl
Bogaty zestaw statystyk w zakładce „DOKŁADNE STATYSTYKI”

Visit our other weather sites:

Template documentation
and downloads

SZCZEGÓŁOWE STATYSTYKI

weather34-X5


You find our weather info also at:

UK Metoffice

WeatherCloud

Weather Underground

AWEKAS

WeatherlinkIP

Citizen Weather Observer Program (CWOP)

HAMweather, WeatherForYou, PWS Weather


No particular awareness of the weather is required.    There are no Weather-warnings

Raporty METAR w pobliżu


Warning: A non-numeric value encountered in /var/www/orzepowice24.pl/weather28/metar/metarDisplay.php on line 166

Warning: A non-numeric value encountered in /var/www/orzepowice24.pl/weather28/metar/wsMetarTxt.php on line 609

Warning: A non-numeric value encountered in /var/www/orzepowice24.pl/weather28/metar/metarDisplay.php on line 166

Warning: A non-numeric value encountered in /var/www/orzepowice24.pl/weather28/metar/metarDisplay.php on line 166
   
EPKT - Katowice
Zaktualizowano: 20-06-2018 22:30
Bezchmurne niebo  
Bezchmurne niebo  
   Wiatr: Wschód 7.4 km/h
Wiatr: Wschód 7.4 km/h
Temperatura: 17°C
Punkt rosy: 12°C
Wilgotność: 73%
Ciśnienie: 1019 hPa
Widoczność: Więcej niż 10 km
Szczegóły dotyczące chmur: Bezchmurne niebo
EPKT 202030Z 08004KT CAVOK 17/12 Q1019
EPKK - Kraków
Zaktualizowano: 20-06-2018 22:30
Niewiele chmur  
Niewiele chmur  
   Wiatr: varies 3.7 km/h
Wiatr: varies 3.7 km/h
Temperatura: 21°C
Punkt rosy: 15°C
Wilgotność: 69%
Ciśnienie: 1019 hPa
Zachmurzenie: Niewiele chmur
Widoczność: Więcej niż 10 km
Szczegóły dotyczące chmur: Niewiele chmur 6000 ft
EPKK 202030Z VRB02KT 9999 FEW060 21/15 Q1019
LKMT - Ostrava
Zaktualizowano: 20-06-2018 22:30
Bezchmurne niebo  
Bezchmurne niebo  
   Wiatr: NNE 3.7 km/h
Wiatr: NNE 3.7 km/h
Temperatura: 21°C
Punkt rosy: 14°C
Wilgotność: 64%
Ciśnienie: 1019 hPa
Widoczność: Więcej niż 10 km
Szczegóły dotyczące chmur: Bezchmurne niebo
LKMT 202030Z 03002KT CAVOK 21/14 Q1019 NOSIG
LZZI - Žilina
Zaktualizowano: 20-06-2018 22:30
Bezchmurne niebo  
Bezchmurne niebo  
   Wiatr: varies 1.9 km/h
Wiatr: varies 1.9 km/h
Temperatura: 20°C
Punkt rosy: 16°C
Wilgotność: 78%
Ciśnienie: 1020 hPa
Widoczność: Więcej niż 10 km
Szczegóły dotyczące chmur: Bezchmurne niebo
LZZI 202030Z VRB01KT CAVOK 20/16 Q1020
  

Skrypt opracowany przez  Saratoga-weather.org Dostosowany do szablonu przez  Weerstation Leuven